This is the latest recevied weather packets stored in our database for station/object OE9MNR-10. If no packets are shown the sender has not sent any weather packets the latest 1 day(s).
| Time | Temp. | Humidity | Pressure | Rain* | Wind** | Luminosity | Snow |
|---|---|---|---|---|---|---|---|
| 1778078586 | 12.78° C | 100% | 961.6 hPa | - | - | - | - |
| 1778073786 | 17.22° C | 100% | 958.8 hPa | - | - | - | - |
| 1778071986 | 16.11° C | 100% | 958.8 hPa | - | - | - | - |
| 1778071386 | 15.56° C | 100% | 958.8 hPa | - | - | - | - |
| 1778061267 | 16.67° C | 100% | 959 hPa | - | - | - | - |
| 1778060667 | 16.11° C | 100% | 959 hPa | - | - | - | - |
| 1778060067 | 15.56° C | 100% | 958.8 hPa | - | - | - | - |
| 1778059167 | 15.56° C | 100% | 959.2 hPa | - | - | - | - |
| 1778058567 | 15° C | 100% | 959 hPa | - | - | - | - |
| 1778057967 | 15° C | 100% | 959 hPa | - | - | - | - |
| 1778057667 | 14.44° C | 100% | 958.9 hPa | - | - | - | - |
| 1778057067 | 14.44° C | 100% | 958.9 hPa | - | - | - | - |
| 1778056767 | 14.44° C | 100% | 959.1 hPa | - | - | - | - |
| 1778056467 | 14.44° C | 100% | 959.2 hPa | - | - | - | - |
| 1778055867 | 14.44° C | 100% | 959.3 hPa | - | - | - | - |
| 1778055567 | 13.89° C | 100% | 959.3 hPa | - | - | - | - |
| 1778055267 | 13.89° C | 100% | 959.3 hPa | - | - | - | - |
| 1778054967 | 13.89° C | 100% | 959.3 hPa | - | - | - | - |
| 1778054667 | 13.89° C | 100% | 959.3 hPa | - | - | - | - |
| 1778054367 | 13.89° C | 100% | 959.3 hPa | - | - | - | - |
| 1778054067 | 13.33° C | 100% | 959.3 hPa | - | - | - | - |
| 1778053767 | 13.33° C | 100% | 959.2 hPa | - | - | - | - |
| 1778053467 | 13.33° C | 100% | 959.1 hPa | - | - | - | - |
| 1778053167 | 12.78° C | 100% | 959.1 hPa | - | - | - | - |
| 1778052567 | 12.78° C | 100% | 959.1 hPa | - | - | - | - |
* Rain since midnight (hover to see other rain measurements)
** Current wind speed in m/s (hover to see current wind gust speed)